Time;durP1;ratioP1;P1;durP2;ratioP2;P2;SDS_P1;SDS_P2;PMS_P1;PMS_P2;Temp;Humidity;BMP_temperature;BMP_pressure;BME280_temperature;BME280_humidity;BME280_pressure;Samples;Min_cycle;Max_cycle;Signal;HPM_P1;HPM_P2
2020/12/28 00:02:15;;;;;;;13.27;6.07;;;;;;;;;;4919776;29;20043;-79
2020/12/28 00:04:42;;;;;;;13.23;6.22;;;;;;;;;;4950104;29;20147;-77
2020/12/28 00:07:09;;;;;;;13.65;5.90;;;;;;;;;;4946440;29;20048;-78
2020/12/28 00:09:35;;;;;;;13.57;6.53;;;;;;;;;;4930355;29;20044;-77
2020/12/28 00:12:02;;;;;;;13.63;6.40;;;;;;;;;;4933669;29;20182;-78
2020/12/28 00:14:28;;;;;;;13.52;6.70;;;;;;;;;;4933217;29;20054;-78
2020/12/28 00:16:55;;;;;;;14.93;6.85;;;;;;;;;;4919200;29;20058;-78
2020/12/28 00:19:21;;;;;;;15.23;6.88;;;;;;;;;;4920764;29;20178;-78
2020/12/28 00:21:48;;;;;;;13.07;6.43;;;;;;;;;;4970241;28;20119;-78
2020/12/28 00:24:15;;;;;;;14.80;6.38;;;;;;;;;;4937771;29;20047;-77
2020/12/28 00:26:43;;;;;;;14.30;6.25;;;;;;;;;;4937844;29;20103;-78
2020/12/28 00:29:13;;;;;;;12.45;6.13;;;;;;;;;;4921504;29;20811;-78
2020/12/28 00:31:43;;;;;;;13.43;6.40;;;;;;;;;;4952831;29;20074;-78
2020/12/28 00:34:11;;;;;;;12.45;6.40;;;;;;;;;;4920931;29;20040;-78
2020/12/28 00:36:39;;;;;;;14.52;6.53;;;;;;;;;;4952794;29;20051;-78
2020/12/28 00:39:05;;;;;;;14.27;6.82;;;;;;;;;;4920138;29;20130;-78
2020/12/28 00:41:33;;;;;;;15.32;6.90;;;;;;;;;;4936874;29;20114;-79
2020/12/28 00:44:02;;;;;;;13.82;7.22;;;;;;;;;;4905093;29;20142;-78
2020/12/28 00:46:29;;;;;;;13.90;6.10;;;;;;;;;;4936406;29;20075;-79
2020/12/28 00:48:55;;;;;;;12.68;6.53;;;;;;;;;;4935764;29;20423;-79
2020/12/28 00:51:21;;;;;;;11.93;6.13;;;;;;;;;;4904422;29;20498;-79
2020/12/28 00:53:48;;;;;;;18.02;6.57;;;;;;;;;;4951964;29;20053;-78
2020/12/28 00:56:15;;;;;;;16.92;6.65;;;;;;;;;;4937514;29;20044;-77
2020/12/28 00:58:42;;;;;;;13.43;6.93;;;;;;;;;;4939353;29;20066;-78
2020/12/28 01:01:08;;;;;;;15.27;6.88;;;;;;;;;;4935925;29;20039;-78
2020/12/28 01:03:35;;;;;;;12.48;6.30;;;;;;;;;;4955665;23;20402;-79
2020/12/28 01:06:05;;;;;;;17.90;6.65;;;;;;;;;;5013564;28;20065;-77
2020/12/28 01:08:31;;;;;;;16.73;7.30;;;;;;;;;;4995774;28;20057;-77
2020/12/28 01:10:58;;;;;;;13.43;6.65;;;;;;;;;;5014143;28;20069;-77
2020/12/28 01:13:25;;;;;;;13.25;6.97;;;;;;;;;;4995176;28;20065;-77
2020/12/28 01:15:51;;;;;;;15.02;6.60;;;;;;;;;;5011820;28;20093;-77
2020/12/28 01:18:17;;;;;;;12.77;6.43;;;;;;;;;;5014785;28;20115;-79
2020/12/28 01:20:43;;;;;;;13.95;6.53;;;;;;;;;;4995768;28;20521;-77
2020/12/28 01:23:10;;;;;;;12.30;6.47;;;;;;;;;;4995919;28;20074;-77
2020/12/28 01:25:36;;;;;;;14.10;6.90;;;;;;;;;;4995957;28;20080;-77
2020/12/28 01:28:02;;;;;;;13.20;6.55;;;;;;;;;;5015136;28;20489;-77
2020/12/28 01:30:28;;;;;;;15.07;6.22;;;;;;;;;;4995669;28;20076;-77
2020/12/28 01:32:55;;;;;;;14.88;6.68;;;;;;;;;;5013340;28;20073;-78
2020/12/28 01:35:22;;;;;;;12.85;6.43;;;;;;;;;;4997425;28;20104;-77
2020/12/28 01:37:48;;;;;;;13.23;6.78;;;;;;;;;;5014388;28;20046;-78
2020/12/28 01:40:15;;;;;;;14.55;6.60;;;;;;;;;;5015778;28;20057;-77
2020/12/28 01:42:42;;;;;;;11.98;5.82;;;;;;;;;;4982342;28;20061;-78
2020/12/28 01:45:08;;;;;;;14.57;6.68;;;;;;;;;;5015915;28;20469;-78
2020/12/28 01:47:38;;;;;;;11.55;6.10;;;;;;;;;;5015257;28;20069;-78
2020/12/28 01:50:05;;;;;;;12.23;6.18;;;;;;;;;;5014535;28;20108;-77
2020/12/28 01:52:32;;;;;;;11.60;5.97;;;;;;;;;;5013037;28;20205;-77
2020/12/28 01:54:58;;;;;;;11.27;5.82;;;;;;;;;;5011790;28;20493;-77
2020/12/28 01:57:24;;;;;;;13.32;6.18;;;;;;;;;;5013547;28;20402;-77
2020/12/28 01:59:50;;;;;;;12.27;5.70;;;;;;;;;;4996133;28;20046;-77
2020/12/28 02:02:18;;;;;;;12.38;5.90;;;;;;;;;;4997542;28;20084;-77
2020/12/28 02:04:47;;;;;;;11.73;6.10;;;;;;;;;;5012879;28;20054;-76
2020/12/28 02:07:17;;;;;;;17.00;5.90;;;;;;;;;;5012439;28;20045;-77
2020/12/28 02:09:46;;;;;;;15.57;6.30;;;;;;;;;;5011872;28;20054;-77
2020/12/28 02:12:16;;;;;;;13.48;6.47;;;;;;;;;;5011745;28;20755;-77
2020/12/28 02:14:45;;;;;;;12.18;6.00;;;;;;;;;;5011801;28;20046;-77
2020/12/28 02:17:11;;;;;;;12.63;6.20;;;;;;;;;;5011423;28;20107;-77
2020/12/28 02:19:39;;;;;;;14.57;6.78;;;;;;;;;;5012187;28;20045;-77
2020/12/28 02:22:05;;;;;;;14.25;6.70;;;;;;;;;;5010931;28;20077;-77
2020/12/28 02:24:31;;;;;;;13.50;6.47;;;;;;;;;;5011367;28;20540;-77
2020/12/28 02:26:57;;;;;;;14.30;6.25;;;;;;;;;;4995331;28;20042;-76
2020/12/28 02:29:23;;;;;;;12.73;6.20;;;;;;;;;;5012848;28;20120;-78
2020/12/28 02:31:49;;;;;;;15.90;6.53;;;;;;;;;;5011994;28;20390;-76
2020/12/28 02:34:18;;;;;;;13.15;6.65;;;;;;;;;;5012066;28;20052;-76
2020/12/28 02:36:44;;;;;;;14.70;6.90;;;;;;;;;;5011917;28;20236;-78
2020/12/28 02:39:10;;;;;;;14.20;6.40;;;;;;;;;;5011461;28;20299;-78
2020/12/28 02:41:37;;;;;;;12.85;6.22;;;;;;;;;;4994936;28;20030;-78
2020/12/28 02:44:03;;;;;;;11.98;6.05;;;;;;;;;;4994210;28;20049;-78
2020/12/28 02:46:29;;;;;;;14.27;6.25;;;;;;;;;;5011864;28;20042;-78
2020/12/28 02:48:56;;;;;;;11.88;5.95;;;;;;;;;;5010880;28;20053;-78
2020/12/28 02:51:22;;;;;;;14.35;6.68;;;;;;;;;;5011614;28;20129;-78
2020/12/28 02:53:49;;;;;;;11.90;5.60;;;;;;;;;;5011757;28;20517;-79
2020/12/28 02:56:15;;;;;;;12.48;6.50;;;;;;;;;;5012647;28;20092;-77
2020/12/28 02:58:42;;;;;;;12.77;6.30;;;;;;;;;;5014361;28;20049;-78
2020/12/28 03:01:08;;;;;;;14.02;6.32;;;;;;;;;;5015027;28;20046;-77
2020/12/28 03:03:34;;;;;;;15.35;6.38;;;;;;;;;;4993018;28;20042;-76
2020/12/28 03:06:00;;;;;;;10.50;5.80;;;;;;;;;;5010900;28;20442;-77
2020/12/28 03:08:26;;;;;;;14.02;6.72;;;;;;;;;;5010982;28;20046;-78
2020/12/28 03:10:52;;;;;;;13.27;6.20;;;;;;;;;;5011454;28;20134;-78
2020/12/28 03:13:19;;;;;;;12.90;6.07;;;;;;;;;;5010977;28;20301;-77
2020/12/28 03:15:45;;;;;;;12.85;5.72;;;;;;;;;;5010407;28;20050;-77
2020/12/28 03:18:11;;;;;;;12.63;6.38;;;;;;;;;;5010417;28;20137;-76
2020/12/28 03:20:37;;;;;;;13.13;6.05;;;;;;;;;;5010398;28;20346;-77
2020/12/28 03:23:03;;;;;;;12.15;6.22;;;;;;;;;;5010318;28;20573;-78
2020/12/28 03:25:29;;;;;;;13.30;6.28;;;;;;;;;;5010696;28;20413;-77
2020/12/28 03:27:56;;;;;;;11.63;5.55;;;;;;;;;;4994742;28;20474;-78
2020/12/28 03:30:22;;;;;;;10.35;5.68;;;;;;;;;;5011540;28;20034;-78
2020/12/28 03:32:49;;;;;;;11.60;5.53;;;;;;;;;;4993301;28;20052;-77
2020/12/28 03:35:19;;;;;;;11.38;5.55;;;;;;;;;;4993920;28;20125;-77
2020/12/28 03:37:45;;;;;;;11.10;5.50;;;;;;;;;;4992489;28;20045;-77
2020/12/28 03:40:11;;;;;;;11.75;5.93;;;;;;;;;;4992788;28;20052;-77
2020/12/28 03:42:38;;;;;;;12.32;6.28;;;;;;;;;;5012320;28;20057;-78
2020/12/28 03:45:04;;;;;;;12.35;5.90;;;;;;;;;;5011157;28;20465;-77
2020/12/28 03:47:30;;;;;;;11.55;5.60;;;;;;;;;;5010578;28;20052;-78
2020/12/28 03:49:57;;;;;;;14.15;6.10;;;;;;;;;;5011646;28;20468;-78
2020/12/28 03:52:23;;;;;;;13.73;6.18;;;;;;;;;;4994364;28;20068;-78
2020/12/28 03:54:49;;;;;;;14.73;5.85;;;;;;;;;;4994028;28;20403;-77
2020/12/28 03:57:15;;;;;;;12.25;5.82;;;;;;;;;;4995425;28;20114;-78
2020/12/28 03:59:41;;;;;;;11.98;5.60;;;;;;;;;;5023482;28;20172;-76
2020/12/28 04:02:08;;;;;;;11.25;5.68;;;;;;;;;;5025987;28;20048;-76
2020/12/28 04:04:34;;;;;;;10.95;5.22;;;;;;;;;;5022021;28;20045;-77
2020/12/28 04:07:01;;;;;;;11.98;5.55;;;;;;;;;;5024270;28;20098;-76
2020/12/28 04:09:28;;;;;;;11.30;5.40;;;;;;;;;;5007955;28;20132;-77
2020/12/28 04:11:55;;;;;;;12.48;5.70;;;;;;;;;;5023697;28;20080;-76
2020/12/28 04:14:38;;;;;;;11.38;5.45;;;;;;;;;;5022398;28;20065;-77
2020/12/28 04:17:09;;;;;;;12.88;5.60;;;;;;;;;;4999638;28;20041;-77
2020/12/28 04:19:35;;;;;;;11.70;5.70;;;;;;;;;;4992361;28;20116;-77
2020/12/28 04:22:01;;;;;;;11.93;5.40;;;;;;;;;;5014499;28;20046;-78
2020/12/28 04:24:27;;;;;;;11.70;5.93;;;;;;;;;;5014916;28;20103;-77
2020/12/28 04:26:53;;;;;;;11.00;5.47;;;;;;;;;;5009095;28;20652;-77
2020/12/28 04:29:20;;;;;;;11.18;5.30;;;;;;;;;;5009778;28;20042;-77
2020/12/28 04:31:48;;;;;;;9.25;5.13;;;;;;;;;;4993770;28;20038;-78
2020/12/28 04:34:15;;;;;;;14.93;6.43;;;;;;;;;;5010757;28;20545;-77
2020/12/28 04:36:42;;;;;;;12.40;5.60;;;;;;;;;;4990271;28;20120;-78
2020/12/28 04:39:08;;;;;;;10.52;5.05;;;;;;;;;;4983471;28;20054;-77
2020/12/28 04:41:34;;;;;;;11.23;5.32;;;;;;;;;;4985535;28;20073;-77
2020/12/28 04:44:01;;;;;;;9.88;5.07;;;;;;;;;;5015496;28;20109;-77
2020/12/28 04:46:28;;;;;;;12.15;5.57;;;;;;;;;;5002693;28;20053;-78
2020/12/28 04:48:55;;;;;;;10.98;5.63;;;;;;;;;;5013666;28;20054;-77
2020/12/28 04:51:25;;;;;;;10.27;5.57;;;;;;;;;;5008952;28;20045;-77
2020/12/28 04:53:53;;;;;;;10.57;5.10;;;;;;;;;;4999176;28;20034;-77
2020/12/28 04:56:20;;;;;;;10.60;5.25;;;;;;;;;;5020820;28;20054;-79
2020/12/28 04:58:47;;;;;;;12.57;5.10;;;;;;;;;;5018733;28;20050;-77
2020/12/28 05:01:13;;;;;;;10.52;5.20;;;;;;;;;;5015573;28;20046;-77
2020/12/28 05:03:39;;;;;;;12.10;4.82;;;;;;;;;;5017748;28;20052;-77
2020/12/28 05:06:06;;;;;;;13.40;5.55;;;;;;;;;;4995924;28;20511;-77
2020/12/28 05:08:33;;;;;;;11.30;5.63;;;;;;;;;;5012364;28;20294;-76
2020/12/28 05:11:09;;;;;;;9.88;5.00;;;;;;;;;;5011146;28;20041;-77
2020/12/28 05:13:35;;;;;;;12.88;5.28;;;;;;;;;;5012661;28;20119;-77
2020/12/28 05:16:02;;;;;;;10.48;5.40;;;;;;;;;;5022485;28;20046;-77
2020/12/28 05:18:28;;;;;;;11.90;6.18;;;;;;;;;;5023030;28;20050;-77
2020/12/28 05:20:54;;;;;;;10.40;5.22;;;;;;;;;;5002534;28;20068;-77
2020/12/28 05:23:21;;;;;;;10.13;5.22;;;;;;;;;;5019435;28;20157;-77
2020/12/28 05:25:49;;;;;;;9.85;4.82;;;;;;;;;;5017968;28;20447;-77
2020/12/28 05:28:17;;;;;;;11.57;4.80;;;;;;;;;;5012694;28;20046;-76
2020/12/28 05:30:44;;;;;;;9.77;4.78;;;;;;;;;;5013511;28;20401;-77
2020/12/28 05:33:12;;;;;;;11.55;5.15;;;;;;;;;;5011417;28;20494;-77
2020/12/28 05:35:39;;;;;;;10.30;5.32;;;;;;;;;;5012311;28;20088;-76
2020/12/28 05:38:06;;;;;;;11.68;5.05;;;;;;;;;;5011058;28;20046;-76
2020/12/28 05:40:35;;;;;;;8.32;4.15;;;;;;;;;;5011675;28;20229;-77
2020/12/28 05:43:02;;;;;;;8.80;4.22;;;;;;;;;;5011977;28;20127;-77
2020/12/28 05:45:31;;;;;;;9.02;4.18;;;;;;;;;;5011768;28;20514;-77
2020/12/28 05:47:58;;;;;;;8.32;4.32;;;;;;;;;;5011435;28;20069;-76
2020/12/28 05:50:31;;;;;;;8.68;4.22;;;;;;;;;;5011882;28;20478;-76
2020/12/28 05:53:02;;;;;;;7.85;4.18;;;;;;;;;;5011425;28;20045;-76
2020/12/28 05:55:29;;;;;;;7.85;4.25;;;;;;;;;;5011685;28;20405;-76
2020/12/28 05:57:57;;;;;;;8.43;4.13;;;;;;;;;;4994460;28;20053;-77
2020/12/28 06:00:24;;;;;;;7.75;3.90;;;;;;;;;;5011827;28;20048;-77
2020/12/28 06:02:50;;;;;;;9.80;4.35;;;;;;;;;;5011270;28;20042;-76
2020/12/28 06:05:18;;;;;;;8.40;4.80;;;;;;;;;;4993665;28;20052;-77
2020/12/28 06:07:44;;;;;;;8.35;4.03;;;;;;;;;;5011035;28;20520;-77
2020/12/28 06:10:11;;;;;;;7.40;4.10;;;;;;;;;;5011168;28;20042;-78
2020/12/28 06:12:38;;;;;;;10.13;4.40;;;;;;;;;;5011626;28;20571;-77
2020/12/28 06:15:16;;;;;;;9.85;4.53;;;;;;;;;;5011057;28;20061;-78
2020/12/28 06:17:42;;;;;;;8.38;4.05;;;;;;;;;;5012383;28;20129;-78
2020/12/28 06:20:11;;;;;;;9.48;4.15;;;;;;;;;;5012785;28;20058;-78
2020/12/28 06:22:38;;;;;;;10.75;4.60;;;;;;;;;;5012516;28;20045;-78
2020/12/28 06:25:06;;;;;;;9.25;4.43;;;;;;;;;;5011419;28;20049;-77
2020/12/28 06:27:33;;;;;;;10.35;4.30;;;;;;;;;;5010683;28;20089;-77
2020/12/28 06:30:09;;;;;;;7.88;4.10;;;;;;;;;;5011617;28;20093;-76
2020/12/28 06:32:37;;;;;;;10.48;4.55;;;;;;;;;;5011508;28;20100;-76
2020/12/28 06:35:04;;;;;;;7.35;3.78;;;;;;;;;;5011004;28;20038;-77
2020/12/28 06:37:37;;;;;;;9.38;4.57;;;;;;;;;;5010843;28;20120;-77
2020/12/28 06:40:03;;;;;;;7.70;3.90;;;;;;;;;;5010430;28;20123;-77
2020/12/28 06:42:29;;;;;;;8.02;3.97;;;;;;;;;;5011126;28;20046;-77
2020/12/28 06:44:55;;;;;;;7.68;3.90;;;;;;;;;;4993064;28;20054;-77
2020/12/28 06:47:22;;;;;;;7.70;3.45;;;;;;;;;;4993681;28;20277;-77
2020/12/28 06:49:50;;;;;;;6.95;3.35;;;;;;;;;;5010002;28;20041;-77
2020/12/28 06:52:17;;;;;;;6.82;3.78;;;;;;;;;;5014417;28;20065;-78
2020/12/28 06:54:43;;;;;;;8.00;3.83;;;;;;;;;;5010542;28;20038;-76
2020/12/28 06:57:10;;;;;;;7.20;3.55;;;;;;;;;;5010714;28;20041;-77
2020/12/28 06:59:38;;;;;;;7.88;3.58;;;;;;;;;;5011693;28;20345;-78
2020/12/28 07:02:04;;;;;;;7.70;3.75;;;;;;;;;;5010945;28;20048;-77
2020/12/28 07:04:34;;;;;;;9.02;4.20;;;;;;;;;;5048172;23;20136;-77
2020/12/28 07:08:19;;;;;;;18.48;8.20;;;;;;;;;;4991826;28;20054;-78
2020/12/28 07:11:48;;;;;;;34.45;13.73;;;;;;;;;;4990915;28;20042;-78
2020/12/28 07:14:32;;;;;;;9.95;5.20;;;;;;;;;;4911647;29;20035;-78
2020/12/28 07:17:41;;;;;;;9.07;4.45;;;;;;;;;;4891423;29;20395;-79
2020/12/28 07:21:02;;;;;;;8.85;4.05;;;;;;;;;;4943878;29;20143;-78
2020/12/28 07:23:46;;;;;;;7.13;3.83;;;;;;;;;;4914399;29;20047;-79
2020/12/28 07:26:31;;;;;;;7.90;4.05;;;;;;;;;;4929520;29;20154;-79
2020/12/28 07:29:09;;;;;;;9.57;4.15;;;;;;;;;;4930772;29;20043;-78
2020/12/28 07:31:35;;;;;;;7.43;3.60;;;;;;;;;;4931295;29;20044;-77
2020/12/28 07:34:16;;;;;;;8.40;4.22;;;;;;;;;;4928139;29;20585;-78
2020/12/28 07:36:48;;;;;;;9.35;4.07;;;;;;;;;;4932860;29;20492;-78
2020/12/28 07:39:18;;;;;;;9.30;4.28;;;;;;;;;;4932674;29;20067;-78
2020/12/28 07:41:47;;;;;;;10.32;4.30;;;;;;;;;;4949263;28;20515;-78
2020/12/28 07:44:38;;;;;;;8.15;4.00;;;;;;;;;;4930597;29;20052;-78
2020/12/28 07:47:10;;;;;;;11.48;4.75;;;;;;;;;;4915542;29;20131;-76
2020/12/28 07:49:43;;;;;;;9.98;4.80;;;;;;;;;;4930539;29;20134;-78
2020/12/28 07:52:24;;;;;;;8.48;4.10;;;;;;;;;;4975153;28;20042;-78
2020/12/28 07:55:02;;;;;;;8.13;4.38;;;;;;;;;;4977120;28;20473;-78
2020/12/28 07:57:47;;;;;;;13.13;4.72;;;;;;;;;;4976070;28;20069;-78
2020/12/28 08:00:27;;;;;;;10.05;4.95;;;;;;;;;;4993555;28;20058;-77
2020/12/28 08:03:05;;;;;;;12.52;5.82;;;;;;;;;;5010641;28;20042;-79
2020/12/28 08:05:35;;;;;;;14.05;7.18;;;;;;;;;;4996209;28;20049;-79
2020/12/28 08:08:05;;;;;;;12.85;5.68;;;;;;;;;;5010649;28;20056;-78
2020/12/28 08:10:48;;;;;;;16.15;5.00;;;;;;;;;;4992779;28;20049;-78
2020/12/28 08:13:24;;;;;;;11.20;5.07;;;;;;;;;;5020026;28;20078;-78
2020/12/28 08:16:10;;;;;;;11.68;5.05;;;;;;;;;;4993745;28;20038;-78
2020/12/28 08:18:52;;;;;;;13.48;5.38;;;;;;;;;;5008623;28;20045;-78
2020/12/28 08:21:54;;;;;;;10.65;5.30;;;;;;;;;;5014855;28;20034;-78
2020/12/28 08:24:25;;;;;;;10.43;5.20;;;;;;;;;;5000181;28;20042;-78
2020/12/28 08:27:25;;;;;;;12.18;5.72;;;;;;;;;;4995049;28;20038;-78
2020/12/28 08:30:23;;;;;;;15.00;5.75;;;;;;;;;;4988257;28;20042;-78
2020/12/28 08:32:53;;;;;;;13.45;6.18;;;;;;;;;;5010489;28;20490;-79
2020/12/28 08:35:24;;;;;;;12.10;5.85;;;;;;;;;;4978298;28;20034;-78
2020/12/28 08:37:51;;;;;;;11.20;5.72;;;;;;;;;;4995504;28;20046;-78
2020/12/28 08:40:43;;;;;;;;;;;;;;;;;;5013939;28;20045;-76
2020/12/28 08:43:31;;;;;;;10.82;5.57;;;;;;;;;;5020322;28;19929;-77
2020/12/28 08:46:25;;;;;;;13.00;5.85;;;;;;;;;;5024286;28;20049;-78
2020/12/28 08:49:08;;;;;;;12.50;6.00;;;;;;;;;;5013843;28;20054;-78
2020/12/28 08:52:29;;;;;;;12.60;5.85;;;;;;;;;;5012629;28;20136;-78
2020/12/28 08:55:01;;;;;;;10.73;5.25;;;;;;;;;;4994125;28;20406;-78
2020/12/28 08:57:34;;;;;;;12.35;5.70;;;;;;;;;;5012775;28;20245;-78
2020/12/28 09:00:20;;;;;;;12.65;6.28;;;;;;;;;;5011489;28;20097;-77
2020/12/28 09:02:59;;;;;;;15.63;5.80;;;;;;;;;;4982151;28;20042;-79
2020/12/28 09:05:39;;;;;;;10.63;5.80;;;;;;;;;;5012601;28;20064;-77
2020/12/28 09:08:23;;;;;;;11.02;5.70;;;;;;;;;;4977925;28;20114;-78
2020/12/28 09:11:06;;;;;;;13.07;5.93;;;;;;;;;;4994945;28;20040;-78
2020/12/28 09:13:56;;;;;;;11.80;5.97;;;;;;;;;;5005931;28;20041;-79
2020/12/28 09:16:58;;;;;;;13.20;6.28;;;;;;;;;;4994983;28;20042;-78
2020/12/28 09:19:38;;;;;;;14.90;6.50;;;;;;;;;;4975979;28;20046;-79
2020/12/28 09:22:19;;;;;;;15.23;6.57;;;;;;;;;;4993938;28;20106;-79
2020/12/28 09:25:15;;;;;;;11.93;6.40;;;;;;;;;;4979993;28;20312;-78
2020/12/28 09:27:50;;;;;;;14.35;5.95;;;;;;;;;;4968212;28;20042;-79
2020/12/28 09:30:35;;;;;;;12.18;6.10;;;;;;;;;;4992211;28;20144;-78
2020/12/28 09:33:08;;;;;;;12.38;5.90;;;;;;;;;;4991884;28;20146;-78
2020/12/28 09:35:39;;;;;;;13.52;6.45;;;;;;;;;;4978254;28;20093;-80
2020/12/28 09:38:26;;;;;;;14.15;6.82;;;;;;;;;;5013682;28;20421;-77
2020/12/28 09:41:30;;;;;;;11.95;6.03;;;;;;;;;;5002389;28;20065;-79
2020/12/28 09:43:58;;;;;;;13.32;6.80;;;;;;;;;;5013112;28;20539;-78
2020/12/28 09:46:31;;;;;;;13.23;6.10;;;;;;;;;;5013817;28;20077;-79
2020/12/28 09:48:58;;;;;;;11.75;6.20;;;;;;;;;;4997086;28;20042;-79
2020/12/28 09:52:05;;;;;;;12.55;6.43;;;;;;;;;;4983927;28;20321;-79
2020/12/28 09:54:48;;;;;;;12.05;6.30;;;;;;;;;;4962768;28;20046;-78
2020/12/28 09:57:40;;;;;;;12.38;6.03;;;;;;;;;;4996727;28;20041;-77
2020/12/28 10:00:14;;;;;;;13.65;6.57;;;;;;;;;;5010590;28;20072;-79
2020/12/28 10:03:17;;;;;;;;;;;;;;;;;;;;;
2020/12/28 10:06:40;;;;;;;11.98;6.40;;;;;;;;;;4935661;29;20496;-78
2020/12/28 10:09:30;;;;;;;15.18;7.28;;;;;;;;;;4929894;29;20069;-78
2020/12/28 10:12:07;;;;;;;12.07;6.18;;;;;;;;;;4953856;29;20099;-78
2020/12/28 10:15:04;;;;;;;13.18;6.43;;;;;;;;;;4937951;29;20047;-79
2020/12/28 10:18:06;;;;;;;13.15;5.40;;;;;;;;;;4961862;28;20079;-78
2020/12/28 10:20:49;;;;;;;13.18;6.22;;;;;;;;;;4951578;29;20061;-79
2020/12/28 10:23:22;;;;;;;12.68;6.95;;;;;;;;;;4955679;28;20079;-79
2020/12/28 10:25:56;;;;;;;13.55;6.53;;;;;;;;;;4934481;29;20936;-78
2020/12/28 10:28:25;;;;;;;13.98;6.80;;;;;;;;;;4963484;28;20470;-78
2020/12/28 10:31:01;;;;;;;15.38;7.53;;;;;;;;;;4965480;28;20042;-78
2020/12/28 10:33:44;;;;;;;18.45;7.80;;;;;;;;;;4976223;28;20140;-78
2020/12/28 10:36:28;;;;;;;20.50;9.98;;;;;;;;;;4992401;28;20551;-77
2020/12/28 10:38:59;;;;;;;17.48;8.55;;;;;;;;;;5023247;28;20046;-77
2020/12/28 10:41:45;;;;;;;14.00;6.93;;;;;;;;;;4994528;28;20037;-78
2020/12/28 10:45:02;;;;;;;17.38;7.50;;;;;;;;;;4912359;29;20062;-77
2020/12/28 10:47:36;;;;;;;14.30;6.70;;;;;;;;;;4928128;29;20138;-78
2020/12/28 10:50:10;;;;;;;15.95;7.35;;;;;;;;;;4930274;29;20066;-76
2020/12/28 10:52:49;;;;;;;13.73;7.18;;;;;;;;;;4929689;29;20138;-77
2020/12/28 10:55:47;;;;;;;14.77;7.57;;;;;;;;;;4925353;29;20043;-77
2020/12/28 10:58:29;;;;;;;15.48;7.70;;;;;;;;;;4924311;29;20094;-78
2020/12/28 11:01:04;;;;;;;;;;;;;;;;;;4930202;29;20071;-77
2020/12/28 11:03:54;;;;;;;15.95;7.30;;;;;;;;;;4913713;29;19923;-78
2020/12/28 11:06:54;;;;;;;13.05;6.90;;;;;;;;;;4928126;29;20523;-77
2020/12/28 11:09:36;;;;;;;13.77;6.88;;;;;;;;;;4927501;29;20043;-78
2020/12/28 11:12:10;;;;;;;13.98;7.07;;;;;;;;;;4929870;29;20500;-78
2020/12/28 11:14:57;;;;;;;12.88;6.72;;;;;;;;;;4910655;29;20130;-78
2020/12/28 11:17:34;;;;;;;12.63;6.30;;;;;;;;;;4904385;29;20507;-78
2020/12/28 11:20:07;;;;;;;12.50;6.70;;;;;;;;;;4922898;29;20051;-78
2020/12/28 11:22:49;;;;;;;12.07;6.63;;;;;;;;;;4975124;28;20224;-78
2020/12/28 11:25:24;;;;;;;14.27;6.60;;;;;;;;;;4980446;28;20509;-78
2020/12/28 11:28:09;;;;;;;14.07;6.72;;;;;;;;;;4993750;28;20111;-79
2020/12/28 11:30:58;;;;;;;12.15;6.15;;;;;;;;;;5014433;28;20125;-79
2020/12/28 11:33:36;;;;;;;10.18;5.78;;;;;;;;;;5014704;28;20034;-78
2020/12/28 11:36:08;;;;;;;11.23;6.22;;;;;;;;;;4989180;28;20034;-78
2020/12/28 11:38:54;;;;;;;11.05;5.95;;;;;;;;;;4992700;28;20402;-77
2020/12/28 11:41:40;;;;;;;11.80;6.03;;;;;;;;;;4994049;28;20068;-78
2020/12/28 11:44:10;;;;;;;11.60;6.00;;;;;;;;;;5012582;28;20371;-79
2020/12/28 11:46:59;;;;;;;11.60;5.78;;;;;;;;;;5008234;28;20069;-79
2020/12/28 11:49:45;;;;;;;12.60;5.55;;;;;;;;;;5006446;28;20057;-78
2020/12/28 11:52:23;;;;;;;12.63;4.82;;;;;;;;;;4978593;28;20053;-78
2020/12/28 11:55:02;;;;;;;9.15;5.43;;;;;;;;;;4995285;28;20046;-80
2020/12/28 11:57:35;;;;;;;9.52;5.07;;;;;;;;;;4995797;28;20458;-79
2020/12/28 12:00:18;;;;;;;9.07;5.40;;;;;;;;;;4979660;28;20119;-78
2020/12/28 12:02:49;;;;;;;11.70;5.00;;;;;;;;;;5013029;28;20534;-79
2020/12/28 12:05:16;;;;;;;9.75;5.28;;;;;;;;;;5016375;28;20196;-81
2020/12/28 12:07:42;;;;;;;8.98;5.15;;;;;;;;;;4978100;28;20379;-79
2020/12/28 12:10:13;;;;;;;9.43;5.28;;;;;;;;;;4979110;28;20116;-78
2020/12/28 12:12:42;;;;;;;9.45;5.10;;;;;;;;;;4996074;28;20046;-78
2020/12/28 12:15:11;;;;;;;9.38;5.53;;;;;;;;;;4998642;28;20069;-78
2020/12/28 12:17:40;;;;;;;10.50;5.70;;;;;;;;;;4998180;28;20046;-78
2020/12/28 12:20:07;;;;;;;10.75;5.00;;;;;;;;;;4997526;28;20042;-79
2020/12/28 12:22:37;;;;;;;10.55;5.80;;;;;;;;;;4999273;28;20064;-79
2020/12/28 12:25:03;;;;;;;9.48;5.28;;;;;;;;;;5016274;28;20151;-79
2020/12/28 12:27:30;;;;;;;13.60;5.95;;;;;;;;;;4994278;28;20056;-79
2020/12/28 12:30:10;;;;;;;10.02;5.75;;;;;;;;;;5038838;28;20523;-79
2020/12/28 12:32:37;;;;;;;10.63;5.30;;;;;;;;;;5023067;28;20144;-79
2020/12/28 12:35:03;;;;;;;9.57;5.53;;;;;;;;;;5023065;28;20038;-80
2020/12/28 12:37:29;;;;;;;10.75;5.70;;;;;;;;;;5006825;28;20516;-79
2020/12/28 12:39:55;;;;;;;10.15;5.68;;;;;;;;;;4981002;28;20052;-79
2020/12/28 12:42:23;;;;;;;12.23;5.43;;;;;;;;;;4981020;28;20061;-78
2020/12/28 12:44:50;;;;;;;9.23;5.43;;;;;;;;;;5014785;28;20042;-78
2020/12/28 12:47:18;;;;;;;9.48;5.40;;;;;;;;;;4981344;28;20061;-78
2020/12/28 12:49:44;;;;;;;10.45;5.47;;;;;;;;;;5014770;28;20104;-79
2020/12/28 12:52:10;;;;;;;11.30;5.78;;;;;;;;;;4997008;28;20034;-78
2020/12/28 12:54:36;;;;;;;12.70;5.50;;;;;;;;;;5014891;28;20042;-79
2020/12/28 12:57:02;;;;;;;12.13;6.00;;;;;;;;;;4961682;28;20273;-79
2020/12/28 12:59:28;;;;;;;12.20;6.20;;;;;;;;;;5004902;28;20292;-79
2020/12/28 13:01:55;;;;;;;16.55;7.45;;;;;;;;;;4982774;28;20125;-79
2020/12/28 13:07:00;;;;;;;10.18;5.55;;;;;;;;;;4975967;28;20137;-76
2020/12/28 13:09:27;;;;;;;9.50;5.47;;;;;;;;;;4958621;28;20043;-76
2020/12/28 13:11:53;;;;;;;10.55;5.45;;;;;;;;;;4972841;28;20053;-76
2020/12/28 13:14:19;;;;;;;9.27;5.30;;;;;;;;;;4960268;28;20134;-77
2020/12/28 13:16:48;;;;;;;11.93;6.13;;;;;;;;;;4973513;28;20074;-76
2020/12/28 13:19:16;;;;;;;12.95;5.78;;;;;;;;;;4978923;28;20101;-76
2020/12/28 13:21:49;;;;;;;10.65;5.88;;;;;;;;;;4964550;28;20046;-77
2020/12/28 13:24:32;;;;;;;11.00;5.97;;;;;;;;;;4975297;28;20073;-77
2020/12/28 13:26:58;;;;;;;13.50;6.35;;;;;;;;;;4960204;28;20046;-77
2020/12/28 13:29:26;;;;;;;12.85;6.10;;;;;;;;;;4980209;28;20122;-78
2020/12/28 13:31:53;;;;;;;13.60;6.00;;;;;;;;;;4989759;28;20046;-77
2020/12/28 13:34:19;;;;;;;12.20;6.20;;;;;;;;;;4965374;28;20042;-77
2020/12/28 13:36:45;;;;;;;11.32;6.13;;;;;;;;;;4989215;28;20049;-76
2020/12/28 13:39:12;;;;;;;13.65;6.82;;;;;;;;;;5013777;28;20285;-75
2020/12/28 13:41:42;;;;;;;12.38;6.35;;;;;;;;;;4978533;28;20069;-78
2020/12/28 13:44:08;;;;;;;10.75;6.05;;;;;;;;;;5014688;28;20049;-77
2020/12/28 13:46:35;;;;;;;14.65;6.80;;;;;;;;;;5013729;28;20226;-75
2020/12/28 13:49:02;;;;;;;16.05;7.00;;;;;;;;;;5019163;28;20046;-77
2020/12/28 13:51:34;;;;;;;12.90;6.60;;;;;;;;;;5013817;28;20041;-76
2020/12/28 13:54:01;;;;;;;11.73;6.43;;;;;;;;;;5013699;28;20034;-76
2020/12/28 13:56:27;;;;;;;14.00;6.78;;;;;;;;;;5024784;28;20045;-76
2020/12/28 13:58:55;;;;;;;13.68;7.18;;;;;;;;;;5023822;28;20074;-78
2020/12/28 14:01:21;;;;;;;13.55;6.35;;;;;;;;;;4998953;28;20141;-78
2020/12/28 14:03:48;;;;;;;15.13;6.97;;;;;;;;;;5016195;28;20050;-78
2020/12/28 14:06:15;;;;;;;15.98;7.55;;;;;;;;;;5023926;28;20044;-75
2020/12/28 14:08:42;;;;;;;12.75;7.00;;;;;;;;;;5014954;28;20038;-76
2020/12/28 14:11:12;;;;;;;15.23;7.35;;;;;;;;;;5017048;28;20045;-75
2020/12/28 14:13:42;;;;;;;12.65;6.93;;;;;;;;;;4982314;28;20038;-77
2020/12/28 14:16:12;;;;;;;15.15;7.47;;;;;;;;;;5012568;28;20042;-77
2020/12/28 14:18:39;;;;;;;13.25;7.10;;;;;;;;;;5012004;28;20049;-79
2020/12/28 14:21:06;;;;;;;12.45;7.15;;;;;;;;;;4994480;28;20045;-78
2020/12/28 14:23:32;;;;;;;18.55;7.60;;;;;;;;;;5002060;28;20049;-77
2020/12/28 14:25:58;;;;;;;12.52;6.90;;;;;;;;;;5012850;28;20480;-78
2020/12/28 14:28:25;;;;;;;15.10;7.30;;;;;;;;;;5010887;28;20049;-76
2020/12/28 14:30:52;;;;;;;14.35;7.35;;;;;;;;;;4993082;28;20041;-76
2020/12/28 14:33:18;;;;;;;22.90;7.78;;;;;;;;;;4982748;28;20518;-76
2020/12/28 14:35:46;;;;;;;14.05;7.85;;;;;;;;;;4975893;28;20046;-76
2020/12/28 14:38:12;;;;;;;14.35;7.80;;;;;;;;;;5011006;28;20244;-77
2020/12/28 14:40:39;;;;;;;14.73;7.60;;;;;;;;;;5010901;28;20124;-77
2020/12/28 14:43:05;;;;;;;15.48;7.85;;;;;;;;;;5010188;28;20046;-77
2020/12/28 14:45:32;;;;;;;14.85;7.88;;;;;;;;;;5013309;28;20076;-77
2020/12/28 14:47:58;;;;;;;13.63;7.13;;;;;;;;;;5014116;28;20041;-77
2020/12/28 14:50:25;;;;;;;16.00;7.63;;;;;;;;;;5015102;28;20097;-76
2020/12/28 14:52:52;;;;;;;14.85;7.45;;;;;;;;;;5013872;28;20124;-77
2020/12/28 14:55:18;;;;;;;14.57;7.28;;;;;;;;;;4993028;28;20417;-77
2020/12/28 14:57:45;;;;;;;16.60;8.15;;;;;;;;;;4993395;28;20049;-79
2020/12/28 15:00:11;;;;;;;15.52;7.50;;;;;;;;;;5011360;28;20455;-77
2020/12/28 15:02:38;;;;;;;15.15;7.53;;;;;;;;;;5010245;28;20100;-77
2020/12/28 15:05:05;;;;;;;15.93;8.10;;;;;;;;;;5010751;28;20042;-78
2020/12/28 15:07:31;;;;;;;16.98;8.05;;;;;;;;;;5011010;28;20240;-77